Time;durP1;ratioP1;P1;durP2;ratioP2;P2;SDS_P1;SDS_P2;PMS_P1;PMS_P2;Temp;Humidity;BMP_temperature;BMP_pressure;BME280_temperature;BME280_humidity;BME280_pressure;Samples;Min_cycle;Max_cycle;Signal;HPM_P1;HPM_P2
2024/02/15 00:00:43;;;;;;;16.55;4.93;;;;;;;-9.29;59.32;101205.75;5049139;28;20040;-64
2024/02/15 00:03:08;;;;;;;14.93;6.35;;;;;;;-9.38;59.96;101236.66;5050086;27;20033;-68
2024/02/15 00:05:36;;;;;;;12.95;5.35;;;;;;;-9.28;59.01;101191.06;5050035;28;20052;-67
2024/02/15 00:08:03;;;;;;;8.95;4.65;;;;;;;-9.61;59.36;101141.03;5049536;28;20032;-67
2024/02/15 00:10:28;;;;;;;14.75;6.35;;;;;;;-9.46;59.75;101192.38;5049272;28;20040;-65
2024/02/15 00:12:54;;;;;;;12.82;4.82;;;;;;;-9.38;59.89;101185.69;5050178;28;20033;-66
2024/02/15 00:15:19;;;;;;;17.00;6.07;;;;;;;-9.33;59.62;101213.44;5050313;28;20101;-67
2024/02/15 00:17:46;;;;;;;9.20;4.20;;;;;;;-9.25;59.02;101197.22;5049325;28;20061;-66
2024/02/15 00:20:12;;;;;;;14.30;6.53;;;;;;;-9.48;59.81;101213.94;5049933;28;20048;-65
2024/02/15 00:22:41;;;;;;;14.13;5.22;;;;;;;-9.29;59.14;101215.25;5050353;28;20028;-64
2024/02/15 00:25:08;;;;;;;17.48;6.53;;;;;;;-9.54;59.25;101206.91;5048681;28;20039;-66
2024/02/15 00:27:35;;;;;;;13.10;4.22;;;;;;;-9.39;59.05;101194.31;5048714;28;20120;-64
2024/02/15 00:30:04;;;;;;;11.35;6.32;;;;;;;-9.55;59.83;101190.44;5049997;28;20032;-66
2024/02/15 00:32:31;;;;;;;13.73;6.10;;;;;;;-9.63;60.38;101204.09;5049689;28;20033;-66
2024/02/15 00:34:56;;;;;;;11.52;5.22;;;;;;;-9.51;59.77;101191.41;5049357;28;20028;-64
2024/02/15 00:37:22;;;;;;;13.15;5.30;;;;;;;-9.58;60.07;101184.34;5032023;28;20028;-63
2024/02/15 00:39:48;;;;;;;10.60;5.07;;;;;;;-9.43;59.41;101179.47;5050022;28;20115;-66
2024/02/15 00:42:13;;;;;;;16.45;6.70;;;;;;;-9.48;59.20;101170.72;5049774;28;20342;-66
2024/02/15 00:44:39;;;;;;;16.70;7.03;;;;;;;-9.66;59.46;101151.28;5049261;28;20439;-65
2024/02/15 00:47:04;;;;;;;14.80;6.50;;;;;;;-9.60;59.80;101178.22;5047892;28;20029;-66
2024/02/15 00:49:31;;;;;;;9.27;4.32;;;;;;;-9.42;59.12;101175.19;5049606;28;20048;-64
2024/02/15 00:51:58;;;;;;;10.55;4.25;;;;;;;-9.59;59.10;101180.84;5048827;28;20100;-65
2024/02/15 00:54:23;;;;;;;13.73;5.95;;;;;;;-9.75;59.54;101153.69;5049197;28;20029;-62
2024/02/15 00:56:50;;;;;;;12.48;4.93;;;;;;;-9.59;59.52;101169.63;5049412;28;20033;-64
2024/02/15 00:59:15;;;;;;;13.52;5.68;;;;;;;-9.63;59.05;101163.47;5047724;28;20037;-65
2024/02/15 01:01:41;;;;;;;10.82;5.45;;;;;;;-9.78;59.63;101163.09;5049637;28;20094;-64
2024/02/15 01:04:07;;;;;;;14.00;6.13;;;;;;;-9.85;59.88;101157.75;5047784;27;20029;-65
2024/02/15 01:06:32;;;;;;;6.43;3.13;;;;;;;-9.64;59.35;101168.59;5049161;28;20029;-64
2024/02/15 01:09:01;;;;;;;10.50;4.22;;;;;;;-10.01;59.72;101111.56;5049404;28;20047;-63
2024/02/15 01:11:28;;;;;;;9.93;4.28;;;;;;;-9.69;59.73;101187.53;5049387;28;20449;-64
2024/02/15 01:13:55;;;;;;;14.27;6.53;;;;;;;-9.87;60.24;101158.59;5048019;28;20044;-59
2024/02/15 01:16:21;;;;;;;10.30;4.85;;;;;;;-9.68;59.75;101170.28;5049076;28;20119;-65
2024/02/15 01:18:47;;;;;;;15.38;6.45;;;;;;;-10.19;59.82;101104.22;5048496;28;20094;-64
2024/02/15 01:21:13;;;;;;;8.45;3.83;;;;;;;-9.70;59.45;101175.41;5047753;28;20025;-65
2024/02/15 01:23:39;;;;;;;9.77;4.47;;;;;;;-10.05;59.24;101117.53;5049130;28;20031;-64
2024/02/15 01:26:04;;;;;;;11.90;5.93;;;;;;;-9.77;59.42;101181.28;5047522;28;20045;-65
2024/02/15 01:28:30;;;;;;;15.55;5.70;;;;;;;-9.91;59.70;101175.75;5048847;28;20087;-66
2024/02/15 01:30:56;;;;;;;12.90;5.72;;;;;;;-10.07;60.08;101161.53;5049076;28;20029;-64
2024/02/15 01:33:22;;;;;;;9.48;4.18;;;;;;;-9.83;59.47;101178.56;5048668;28;20068;-65
2024/02/15 01:35:48;;;;;;;12.65;3.92;;;;;;;-10.02;58.96;101121.09;5029065;28;20025;-65
2024/02/15 01:38:14;;;;;;;14.25;6.75;;;;;;;-10.01;60.01;101159.09;5027542;28;20470;-66
2024/02/15 01:40:39;;;;;;;11.23;5.53;;;;;;;-9.95;59.65;101167.03;5038565;28;20030;-65
2024/02/15 01:43:05;;;;;;;12.52;4.65;;;;;;;-9.90;59.64;101166.25;5133198;28;20046;-66
2024/02/15 01:45:31;;;;;;;7.78;4.15;;;;;;;-9.90;59.30;101158.47;5132991;27;20370;-66
2024/02/15 01:47:57;;;;;;;15.20;6.47;;;;;;;-10.05;59.96;101159.88;5132775;28;20466;-63
2024/02/15 01:50:24;;;;;;;9.63;3.35;;;;;;;-9.83;59.33;101181.13;5127270;27;20130;-72
2024/02/15 01:52:54;;;;;;;12.20;6.30;;;;;;;-9.97;59.72;101171.28;5133297;27;20053;-63
2024/02/15 01:55:21;;;;;;;14.27;5.55;;;;;;;-9.99;60.01;101172.13;5132872;27;20050;-65
2024/02/15 01:57:48;;;;;;;7.43;3.22;;;;;;;-9.78;59.23;101192.50;5126909;27;20110;-64
2024/02/15 02:00:17;;;;;;;17.90;7.00;;;;;;;-10.07;59.87;101166.72;5126717;27;20047;-64
2024/02/15 02:02:53;;;;;;;13.40;4.47;;;;;;;-10.06;60.34;101171.06;5132549;27;20469;-64
2024/02/15 02:05:19;;;;;;;14.00;6.70;;;;;;;-9.98;60.51;101166.09;5132391;27;20023;-66
2024/02/15 02:07:45;;;;;;;14.35;5.93;;;;;;;-9.88;60.29;101177.56;5132915;27;20031;-64
2024/02/15 02:10:12;;;;;;;13.60;6.13;;;;;;;-10.01;60.56;101174.66;5133066;27;20492;-66
2024/02/15 02:12:40;;;;;;;14.57;5.22;;;;;;;-9.92;60.30;101166.22;5129848;27;20056;-65
2024/02/15 02:15:11;;;;;;;7.85;3.63;;;;;;;-9.91;60.39;101147.25;5053714;27;20098;-65
2024/02/15 02:17:37;;;;;;;11.18;4.72;;;;;;;-9.96;60.41;101159.22;5051404;28;20027;-65
2024/02/15 02:20:07;;;;;;;11.10;5.22;;;;;;;-10.02;60.35;101144.41;5051769;28;20029;-62
2024/02/15 02:22:35;;;;;;;12.05;5.28;;;;;;;-9.87;60.30;101179.31;5051553;28;20109;-63
2024/02/15 02:25:12;;;;;;;9.32;4.07;;;;;;;-9.87;60.46;101169.81;5051931;28;20025;-64
2024/02/15 02:27:38;;;;;;;15.82;6.55;;;;;;;-10.03;60.51;101183.22;5057580;27;20045;-64
2024/02/15 02:30:14;;;;;;;10.32;5.30;;;;;;;-9.81;60.47;101187.25;5055968;27;20089;-65
2024/02/15 02:32:41;;;;;;;16.10;7.03;;;;;;;-10.03;60.91;101193.56;5051324;28;20029;-65
2024/02/15 02:35:07;;;;;;;11.05;4.40;;;;;;;-9.73;60.41;101202.97;5050611;28;20112;-64
2024/02/15 02:37:35;;;;;;;19.13;7.30;;;;;;;-10.03;60.94;101181.50;5052090;28;20112;-64
2024/02/15 02:40:00;;;;;;;16.30;6.90;;;;;;;-9.97;61.08;101173.03;5051210;28;20036;-62
2024/02/15 02:42:26;;;;;;;14.25;6.90;;;;;;;-9.90;60.64;101166.25;5051528;28;20336;-64
2024/02/15 02:44:52;;;;;;;15.90;6.75;;;;;;;-10.30;60.76;101122.97;5055117;27;20055;-65
2024/02/15 02:47:17;;;;;;;15.63;7.00;;;;;;;-9.99;61.10;101178.16;5071181;27;20119;-66
2024/02/15 02:49:43;;;;;;;20.20;6.07;;;;;;;-9.80;61.00;101186.41;5051351;28;20021;-66
2024/02/15 02:52:09;;;;;;;12.60;5.45;;;;;;;-9.81;60.63;101174.28;5050978;28;20056;-65
2024/02/15 02:54:34;;;;;;;10.20;5.20;;;;;;;-9.92;60.36;101166.22;5051501;28;20120;-66
2024/02/15 02:57:00;;;;;;;17.35;6.95;;;;;;;-9.89;60.88;101186.16;5051508;28;20061;-61
2024/02/15 02:59:26;;;;;;;12.15;6.15;;;;;;;-9.84;61.14;101192.34;5051732;28;20035;-67
2024/02/15 03:01:56;;;;;;;14.38;5.88;;;;;;;-9.88;60.93;101193.13;5055671;27;20106;-67
2024/02/15 03:04:22;;;;;;;15.60;5.85;;;;;;;-9.91;60.65;101180.06;5030496;28;20079;-63
2024/02/15 03:06:47;;;;;;;9.27;3.80;;;;;;;-10.00;60.34;101140.13;5050606;27;20040;-66
2024/02/15 03:09:14;;;;;;;9.02;3.95;;;;;;;-9.72;60.09;101191.78;5050699;28;20031;-65
2024/02/15 03:11:40;;;;;;;13.93;5.97;;;;;;;-10.15;61.19;101147.50;5050412;28;20093;-64
2024/02/15 03:14:05;;;;;;;12.48;5.45;;;;;;;-9.79;60.75;101198.50;5050515;28;20040;-65
2024/02/15 03:16:31;;;;;;;12.43;6.07;;;;;;;-9.71;59.90;101196.97;5050830;28;20041;-62
2024/02/15 03:18:57;;;;;;;14.60;6.13;;;;;;;-10.00;60.93;101183.31;5050641;28;20097;-66
2024/02/15 03:21:22;;;;;;;12.10;5.47;;;;;;;-9.93;60.91;101198.16;5050616;28;20425;-64
2024/02/15 03:23:48;;;;;;;13.25;6.30;;;;;;;-9.93;60.67;101198.16;5049039;28;20062;-66
2024/02/15 03:26:14;;;;;;;17.85;7.38;;;;;;;-10.12;62.12;101204.59;5050239;28;20459;-65
2024/02/15 03:28:40;;;;;;;9.52;4.72;;;;;;;-9.89;61.29;101209.47;5050545;28;20129;-64
2024/02/15 03:31:05;;;;;;;11.75;5.43;;;;;;;-10.20;61.03;101168.13;5049838;28;20033;-65
2024/02/15 03:33:34;;;;;;;16.98;7.63;;;;;;;-9.94;60.87;101180.88;5050750;28;20032;-65
2024/02/15 03:36:00;;;;;;;13.27;5.47;;;;;;;-9.89;61.38;101202.59;5050359;28;20038;-66
2024/02/15 03:38:29;;;;;;;8.73;4.43;;;;;;;-9.94;61.18;101201.59;5050241;28;20064;-65
2024/02/15 03:40:58;;;;;;;19.02;7.30;;;;;;;-10.03;61.37;101194.47;5050503;28;20112;-66
2024/02/15 03:43:24;;;;;;;15.05;7.20;;;;;;;-10.00;61.82;101189.34;5050211;28;20029;-65
2024/02/15 03:45:50;;;;;;;14.43;7.32;;;;;;;-9.96;61.82;101204.13;5050672;28;20106;-65
2024/02/15 03:48:16;;;;;;;16.88;6.53;;;;;;;-10.00;61.70;101189.34;5050343;28;20433;-66
2024/02/15 03:50:43;;;;;;;13.52;6.00;;;;;;;-9.89;61.52;101197.41;5050052;28;20070;-65
2024/02/15 03:53:11;;;;;;;16.90;8.02;;;;;;;-9.91;61.26;101209.44;5049970;28;20059;-67
2024/02/15 03:55:36;;;;;;;18.15;7.43;;;;;;;-9.99;61.76;101206.66;5050277;28;20128;-67
2024/02/15 03:58:02;;;;;;;10.27;4.18;;;;;;;-9.70;61.27;101214.28;5050179;28;20111;-66
2024/02/15 04:00:27;;;;;;;15.07;6.10;;;;;;;-9.92;61.06;101197.31;5049654;28;20095;-66
2024/02/15 04:02:53;;;;;;;10.00;4.88;;;;;;;-9.93;61.13;101197.28;5050666;28;20116;-67
2024/02/15 04:05:20;;;;;;;10.85;5.50;;;;;;;-9.86;61.20;101230.31;5050364;28;20029;-67
2024/02/15 04:07:46;;;;;;;18.92;7.45;;;;;;;-10.07;61.16;101220.25;5049613;27;20119;-65
2024/02/15 04:10:12;;;;;;;15.95;7.10;;;;;;;-10.03;61.56;101224.66;5050152;28;20041;-68
2024/02/15 04:12:54;;;;;;;15.75;7.65;;;;;;;-10.05;61.67;101234.09;5050269;28;20433;-65
2024/02/15 04:15:20;;;;;;;13.38;5.85;;;;;;;-9.98;61.45;101226.53;5049593;28;20043;-66
2024/02/15 04:17:46;;;;;;;15.15;6.25;;;;;;;-10.09;61.64;101210.72;5048799;28;20441;-66
2024/02/15 04:20:12;;;;;;;11.13;4.88;;;;;;;-9.89;61.64;101212.06;5050283;28;20102;-66
2024/02/15 04:22:38;;;;;;;18.45;7.72;;;;;;;-9.96;61.39;101213.63;5050219;28;20356;-65
2024/02/15 04:25:10;;;;;;;20.35;6.63;;;;;;;-9.92;61.27;101223.25;5049309;28;20039;-65
2024/02/15 04:27:36;;;;;;;17.35;7.53;;;;;;;-10.03;62.08;101232.44;5049405;28;20426;-63
2024/02/15 04:30:03;;;;;;;10.95;5.20;;;;;;;-9.80;61.72;101236.50;5049957;28;20040;-65
2024/02/15 04:32:33;;;;;;;17.33;7.15;;;;;;;-9.88;61.60;101219.03;5049398;28;20029;-67
2024/02/15 04:35:00;;;;;;;18.80;7.13;;;;;;;-10.04;62.10;101221.22;5048887;28;20033;-66
2024/02/15 04:37:27;;;;;;;18.10;7.68;;;;;;;-10.09;62.81;101230.56;5048287;28;20109;-65
2024/02/15 04:39:52;;;;;;;16.40;6.85;;;;;;;-9.92;61.56;101220.66;5049718;28;20535;-64
2024/02/15 04:42:18;;;;;;;10.35;4.57;;;;;;;-9.75;61.14;101225.41;5049920;28;20068;-64
2024/02/15 04:44:44;;;;;;;12.88;5.30;;;;;;;-9.90;61.72;101259.53;5049754;28;20047;-66
2024/02/15 04:47:09;;;;;;;13.40;5.75;;;;;;;-9.96;62.20;101247.31;5048927;28;20033;-65
2024/02/15 04:49:37;;;;;;;19.80;7.30;;;;;;;-10.00;60.76;101217.84;5048877;28;20093;-60
2024/02/15 04:52:04;;;;;;;15.10;7.43;;;;;;;-10.06;61.41;101243.59;5049615;28;20521;-67
2024/02/15 04:54:30;;;;;;;15.48;6.22;;;;;;;-10.05;60.67;101229.81;5049301;28;20041;-67
2024/02/15 04:56:56;;;;;;;12.50;5.93;;;;;;;-10.09;60.78;101236.63;5049086;28;20064;-67
2024/02/15 04:59:25;;;;;;;14.15;5.85;;;;;;;-10.12;61.67;101226.19;5049269;28;20422;-67
2024/02/15 05:01:52;;;;;;;9.07;3.25;;;;;;;-10.05;61.59;101211.69;5049932;28;20025;-68
2024/02/15 05:04:17;;;;;;;13.90;6.97;;;;;;;-10.07;60.92;101233.19;5048876;28;20489;-69
2024/02/15 05:06:44;;;;;;;18.77;7.60;;;;;;;-10.35;61.29;101194.50;5049247;28;20037;-69
2024/02/15 05:09:10;;;;;;;12.35;4.72;;;;;;;-9.87;60.53;101262.25;5048309;27;20344;-70
2024/02/15 05:11:47;;;;;;;13.75;5.88;;;;;;;-10.09;61.07;101246.13;5049218;28;20037;-69
2024/02/15 05:14:23;;;;;;;12.70;5.05;;;;;;;-10.41;61.20;101203.00;5029295;28;20057;-70
2024/02/15 05:16:49;;;;;;;13.80;5.72;;;;;;;-10.12;60.93;101256.41;5029219;28;20034;-69
2024/02/15 05:19:18;;;;;;;19.63;7.18;;;;;;;-10.32;61.57;101251.53;5029048;28;20030;-69
2024/02/15 05:21:47;;;;;;;15.18;7.40;;;;;;;-10.37;62.43;101247.94;5029038;28;20021;-65
2024/02/15 05:24:13;;;;;;;8.32;4.20;;;;;;;-10.11;61.67;101295.28;5028883;28;20056;-64
2024/02/15 05:26:40;;;;;;;21.50;7.47;;;;;;;-10.38;62.56;101272.06;5030870;28;20143;-64
2024/02/15 05:29:05;;;;;;;17.88;6.80;;;;;;;-10.40;62.99;101266.00;5049108;28;20037;-66
2024/02/15 05:31:31;;;;;;;15.30;5.80;;;;;;;-10.25;63.35;101281.94;5048960;28;20510;-64
2024/02/15 05:33:57;;;;;;;17.88;6.97;;;;;;;-10.21;62.91;101272.56;5047874;28;20036;-65
2024/02/15 05:36:25;;;;;;;14.90;6.72;;;;;;;-10.25;62.98;101292.31;5048842;28;20033;-65
2024/02/15 05:38:52;;;;;;;14.18;5.45;;;;;;;-10.14;62.80;101279.66;5048664;28;20032;-65
2024/02/15 05:41:19;;;;;;;15.45;6.75;;;;;;;-10.17;62.51;101289.06;5049233;28;20116;-71
2024/02/15 05:43:46;;;;;;;19.58;7.10;;;;;;;-10.29;62.91;101297.34;5048669;28;20041;-63
2024/02/15 05:46:12;;;;;;;16.17;6.85;;;;;;;-10.16;62.60;101291.69;5049778;27;20029;-61
2024/02/15 05:48:39;;;;;;;13.00;5.05;;;;;;;-9.97;61.70;101289.63;5099119;27;20119;-63
2024/02/15 05:51:06;;;;;;;19.50;7.03;;;;;;;-10.22;62.67;101294.13;5052732;28;20463;-65
2024/02/15 05:53:35;;;;;;;12.68;6.15;;;;;;;-10.03;62.15;101317.94;5052136;28;20120;-63
2024/02/15 05:56:10;;;;;;;17.42;6.70;;;;;;;-10.16;61.87;101306.34;5052148;28;20041;-64
2024/02/15 05:58:35;;;;;;;16.88;6.45;;;;;;;-10.29;62.88;101316.38;5052054;28;20039;-65
2024/02/15 06:01:02;;;;;;;18.55;7.40;;;;;;;-10.29;63.52;101321.56;5051649;28;20592;-64
2024/02/15 06:03:29;;;;;;;13.07;5.78;;;;;;;-10.43;62.16;101276.28;5051791;28;20029;-64
2024/02/15 06:05:58;;;;;;;16.13;6.70;;;;;;;-10.14;62.08;101331.47;5051796;28;20440;-65
2024/02/15 06:08:29;;;;;;;21.80;7.20;;;;;;;-10.21;62.12;101302.75;5052309;28;20033;-63
2024/02/15 06:10:55;;;;;;;16.58;7.68;;;;;;;-10.24;62.47;101314.78;5051715;27;21054;-64
2024/02/15 06:13:21;;;;;;;12.05;4.88;;;;;;;-10.06;61.59;101316.16;5051939;28;20464;-65
2024/02/15 06:15:52;;;;;;;12.50;5.40;;;;;;;-10.17;62.08;101325.31;5052231;28;20111;-65
2024/02/15 06:18:21;;;;;;;10.77;4.97;;;;;;;-10.19;62.33;101314.94;5052396;28;20037;-64
2024/02/15 06:20:49;;;;;;;10.57;4.78;;;;;;;-10.21;61.89;101321.78;5051582;28;20044;-59
2024/02/15 06:23:18;;;;;;;10.68;5.63;;;;;;;-10.18;61.73;101340.00;5050183;28;20070;-63
2024/02/15 06:25:45;;;;;;;16.80;6.35;;;;;;;-10.27;62.00;101319.88;5051803;28;20029;-63
2024/02/15 06:28:19;;;;;;;21.02;7.45;;;;;;;-10.43;62.71;101339.31;5052077;28;20025;-63
2024/02/15 06:41:41;;;;;;;14.90;6.78;;;;;;;-10.39;62.34;101324.69;5051945;28;20111;-63
2024/02/15 06:44:07;;;;;;;10.23;4.53;;;;;;;-10.07;61.54;101322.16;5051374;28;20033;-63
2024/02/15 06:46:33;;;;;;;13.82;5.18;;;;;;;-10.07;61.46;101327.34;5051599;28;20041;-63
2024/02/15 06:48:58;;;;;;;18.75;7.40;;;;;;;-10.20;61.37;101315.75;5051320;28;20045;-63
2024/02/15 06:51:24;;;;;;;17.45;6.55;;;;;;;-10.15;61.16;101318.47;5051314;28;20056;-64
2024/02/15 06:53:51;;;;;;;16.40;6.88;;;;;;;-10.28;61.50;101307.78;5051166;28;20085;-61
2024/02/15 06:56:20;;;;;;;12.10;5.30;;;;;;;-10.25;61.82;101318.22;5050788;28;20048;-63
2024/02/15 06:58:46;;;;;;;15.13;6.93;;;;;;;-10.04;61.16;101327.44;5050492;28;20036;-63
2024/02/15 07:01:13;;;;;;;14.55;5.70;;;;;;;-10.18;61.38;101300.25;5051141;28;20471;-64
2024/02/15 07:03:39;;;;;;;17.08;5.78;;;;;;;-10.14;61.59;101315.03;5051647;28;20199;-65
2024/02/15 07:06:04;;;;;;;11.40;5.10;;;;;;;-9.93;60.87;101326.84;5050821;28;20348;-64
2024/02/15 07:08:31;;;;;;;22.13;7.25;;;;;;;-9.99;60.98;101332.75;5051191;28;20112;-65
2024/02/15 07:10:57;;;;;;;27.58;7.93;;;;;;;-9.99;60.92;101333.63;5050817;28;20033;-64
2024/02/15 07:13:22;;;;;;;20.70;7.78;;;;;;;-10.13;61.49;101319.38;5049819;27;20036;-65
2024/02/15 07:15:48;;;;;;;14.68;7.40;;;;;;;-10.00;61.36;101328.41;5051079;28;20033;-65
2024/02/15 07:18:18;;;;;;;19.13;6.47;;;;;;;-10.18;61.24;101284.72;5051123;28;20033;-64
2024/02/15 07:20:45;;;;;;;18.20;7.78;;;;;;;-9.94;61.91;101323.38;5050606;28;20456;-59
2024/02/15 07:23:11;;;;;;;19.63;8.00;;;;;;;-9.74;61.22;101326.50;5037347;28;20048;-64
2024/02/15 07:25:36;;;;;;;18.10;7.93;;;;;;;-9.74;61.69;101318.72;5034314;28;20029;-63
2024/02/15 07:28:02;;;;;;;18.48;6.68;;;;;;;-9.44;60.63;101340.25;5050579;28;20044;-62
2024/02/15 07:30:27;;;;;;;21.02;7.60;;;;;;;-9.69;60.50;101300.72;5051027;28;20068;-64
2024/02/15 07:32:53;;;;;;;19.48;8.05;;;;;;;-9.30;59.53;101319.84;5050024;28;20368;-64
2024/02/15 07:35:18;;;;;;;18.98;7.63;;;;;;;-9.27;59.74;101340.69;5050630;28;20033;-63
2024/02/15 07:37:52;;;;;;;19.00;7.35;;;;;;;-9.34;59.08;101286.91;5051174;28;20039;-64
2024/02/15 07:40:18;;;;;;;15.65;6.68;;;;;;;-8.92;58.75;101343.28;5050459;28;20115;-63
2024/02/15 07:42:43;;;;;;;13.52;5.75;;;;;;;-8.76;57.98;101351.41;5055633;27;20071;-64
2024/02/15 07:45:11;;;;;;;16.20;8.02;;;;;;;-9.02;57.47;101334.41;5050805;28;20033;-65
2024/02/15 07:47:36;;;;;;;17.20;7.53;;;;;;;-9.09;58.04;101332.47;5106463;27;20066;-65
2024/02/15 07:50:03;;;;;;;15.10;6.30;;;;;;;-9.06;57.56;101295.34;5134516;27;20074;-64
2024/02/15 07:52:29;;;;;;;14.52;5.40;;;;;;;-8.76;57.20;101331.53;5134670;27;20086;-64
2024/02/15 07:54:54;;;;;;;14.23;5.20;;;;;;;-8.80;56.91;101358.25;5036915;27;20049;-65
2024/02/15 07:57:20;;;;;;;22.88;7.97;;;;;;;-8.97;57.82;101376.91;5027073;28;20043;-64
2024/02/15 07:59:47;;;;;;;20.58;8.63;;;;;;;-8.97;58.05;101355.25;5030300;28;20043;-64
2024/02/15 08:02:17;;;;;;;21.10;7.55;;;;;;;-8.80;57.97;101366.91;5030896;28;20049;-64
2024/02/15 08:04:44;;;;;;;16.98;6.95;;;;;;;-8.69;57.29;101337.72;5030705;28;20412;-64
2024/02/15 08:07:10;;;;;;;11.07;4.43;;;;;;;-8.60;57.07;101363.03;5039620;28;20410;-60
2024/02/15 08:09:37;;;;;;;19.42;8.20;;;;;;;-8.76;57.20;101351.41;5035908;27;20040;-61
2024/02/15 08:12:03;;;;;;;23.15;8.63;;;;;;;-8.81;57.26;101344.41;5047706;28;20029;-63
2024/02/15 08:14:29;;;;;;;14.32;6.00;;;;;;;-8.65;57.04;101363.81;5049565;28;20045;-59
2024/02/15 08:16:55;;;;;;;19.98;8.45;;;;;;;-8.63;56.81;101358.66;5044495;28;20036;-62
2024/02/15 08:19:22;;;;;;;16.45;7.63;;;;;;;-9.01;56.77;101298.91;5034697;28;20371;-60
2024/02/15 08:21:50;;;;;;;19.30;8.13;;;;;;;-8.68;57.77;101373.22;5044856;28;20123;-61
2024/02/15 08:24:16;;;;;;;16.38;7.25;;;;;;;-8.31;55.85;101361.06;5049037;28;20432;-61
2024/02/15 08:26:42;;;;;;;17.95;8.68;;;;;;;-8.36;56.00;101362.69;5047044;27;20041;-62
2024/02/15 08:29:11;;;;;;;19.65;8.32;;;;;;;-8.42;56.74;101353.03;5047959;27;20033;-64
2024/02/15 08:31:37;;;;;;;21.67;8.75;;;;;;;-8.24;56.22;101351.69;5049643;27;20437;-64
2024/02/15 08:34:05;;;;;;;14.80;5.43;;;;;;;-7.91;54.75;101354.94;5048066;27;20029;-64
2024/02/15 08:36:31;;;;;;;12.85;6.13;;;;;;;-7.91;54.55;101375.75;5048872;28;20025;-63
2024/02/15 08:38:56;;;;;;;18.52;6.95;;;;;;;-8.14;54.96;101363.16;5049085;28;20040;-64
2024/02/15 08:41:26;;;;;;;25.40;8.63;;;;;;;-8.26;55.03;101361.16;5048682;28;20045;-64
2024/02/15 08:43:52;;;;;;;17.90;8.60;;;;;;;-8.42;55.34;101392.00;5048486;28;20059;-61
2024/02/15 08:46:19;;;;;;;16.20;6.45;;;;;;;-8.22;55.28;101369.03;5046934;27;20029;-63
2024/02/15 08:48:46;;;;;;;21.05;8.40;;;;;;;-8.32;55.56;101368.81;5049346;28;20040;-62
2024/02/15 08:51:12;;;;;;;14.68;6.90;;;;;;;-8.19;55.31;101365.63;5049329;28;20130;-62
2024/02/15 08:53:38;;;;;;;15.88;7.10;;;;;;;-8.04;55.01;101370.28;5049036;27;20457;-61
2024/02/15 08:56:06;;;;;;;18.98;7.90;;;;;;;-8.11;55.44;101378.81;5053064;27;20048;-64
2024/02/15 08:58:32;;;;;;;17.58;6.97;;;;;;;-8.09;54.51;101364.13;5046433;28;20040;-62
2024/02/15 09:00:58;;;;;;;18.95;8.40;;;;;;;-8.27;54.74;101396.66;5045164;28;20041;-63
2024/02/15 09:03:23;;;;;;;18.38;8.43;;;;;;;-8.56;54.89;101337.16;5039495;28;20115;-64
2024/02/15 09:05:49;;;;;;;15.77;7.50;;;;;;;-8.27;54.82;101385.41;5042723;28;20100;-63
2024/02/15 09:08:15;;;;;;;17.85;8.27;;;;;;;-8.36;55.00;101378.28;5039645;28;20092;-66
2024/02/15 09:10:42;;;;;;;18.85;8.13;;;;;;;-8.26;54.08;101389.75;5041803;28;20444;-66
2024/02/15 09:13:08;;;;;;;18.25;6.90;;;;;;;-8.29;54.00;101356.75;5035904;28;20110;-63
2024/02/15 09:15:33;;;;;;;16.27;7.75;;;;;;;-8.49;54.26;101355.47;5038847;28;20029;-72
2024/02/15 09:17:59;;;;;;;23.33;7.43;;;;;;;-8.47;54.85;101369.34;5042286;28;20020;-65
2024/02/15 09:20:28;;;;;;;17.55;8.00;;;;;;;-8.65;55.34;101370.72;5039520;27;20025;-60
2024/02/15 09:22:54;;;;;;;17.30;8.25;;;;;;;-8.77;55.78;101365.25;5041722;28;20120;-65
2024/02/15 09:25:23;;;;;;;16.15;7.90;;;;;;;-8.41;54.30;101378.16;5020923;28;20064;-66
2024/02/15 09:27:49;;;;;;;23.38;7.75;;;;;;;-8.42;54.64;101383.34;5040561;28;20450;-64
2024/02/15 09:30:15;;;;;;;23.77;9.13;;;;;;;-8.65;55.08;101366.41;5048557;28;20032;-67
2024/02/15 09:32:42;;;;;;;15.98;8.23;;;;;;;-8.90;55.33;101335.50;5048930;28;20033;-64
2024/02/15 09:35:09;;;;;;;20.25;9.30;;;;;;;-8.66;55.83;101367.25;5047303;28;20896;-64
2024/02/15 09:37:37;;;;;;;28.23;8.88;;;;;;;-8.48;55.46;101384.06;5046995;28;20029;-63
2024/02/15 09:40:06;;;;;;;14.25;6.30;;;;;;;-8.24;53.76;101372.47;5047277;28;20092;-64
2024/02/15 09:42:34;;;;;;;21.77;8.75;;;;;;;-8.45;54.23;101375.44;5020712;28;20038;-64
2024/02/15 09:45:02;;;;;;;15.43;7.60;;;;;;;-8.52;54.13;101379.69;5027213;28;20038;-64
2024/02/15 09:47:42;;;;;;;20.27;9.55;;;;;;;-8.74;55.56;101391.28;5028709;28;20037;-65
2024/02/15 09:50:11;;;;;;;22.13;9.70;;;;;;;-8.80;55.35;101366.91;5044037;28;20041;-63
2024/02/15 09:52:40;;;;;;;19.98;9.07;;;;;;;-8.74;55.59;101375.69;5047657;28;20049;-67
2024/02/15 09:55:11;;;;;;;22.63;8.90;;;;;;;-8.69;54.93;101393.13;5046778;28;20045;-65
2024/02/15 09:57:44;;;;;;;23.90;8.13;;;;;;;-8.50;55.01;101380.59;5040555;28;20076;-63
2024/02/15 10:00:14;;;;;;;22.15;7.35;;;;;;;-8.51;54.09;101387.50;5041445;27;20029;-64
2024/02/15 10:02:44;;;;;;;18.70;8.50;;;;;;;-8.65;54.67;101375.94;5041511;27;20104;-64
2024/02/15 10:05:11;;;;;;;21.92;9.45;;;;;;;-8.87;55.02;101372.81;5036464;28;20441;-63
2024/02/15 10:07:41;;;;;;;22.25;9.48;;;;;;;-8.86;55.67;101381.47;5041279;28;20077;-67
2024/02/15 10:10:20;;;;;;;17.38;7.75;;;;;;;-8.90;55.36;101364.06;5040644;28;20352;-64
2024/02/15 10:12:56;;;;;;;13.40;6.00;;;;;;;-9.05;55.19;101328.25;5034414;28;20077;-64
2024/02/15 10:15:30;;;;;;;21.30;9.43;;;;;;;-8.86;55.24;101381.47;5065040;28;20044;-64
2024/02/15 10:17:58;;;;;;;14.60;6.93;;;;;;;-8.85;55.31;101391.91;5047199;28;20086;-65
2024/02/15 10:20:25;;;;;;;19.48;8.82;;;;;;;-9.17;55.84;101331.41;5047230;28;20064;-63
2024/02/15 10:23:00;;;;;;;23.17;9.45;;;;;;;-8.75;56.07;101387.81;5046932;28;20116;-64
2024/02/15 10:25:29;;;;;;;21.25;8.38;;;;;;;-8.54;55.08;101390.03;5046741;28;20120;-64
2024/02/15 10:28:12;;;;;;;18.08;6.95;;;;;;;-8.60;55.05;101389.88;5037047;28;20040;-64
2024/02/15 10:30:39;;;;;;;21.95;9.30;;;;;;;-8.69;55.44;101374.97;5045740;28;20041;-63
2024/02/15 10:33:07;;;;;;;22.15;9.82;;;;;;;-8.66;56.00;101390.63;5047407;28;20393;-66
2024/02/15 10:35:39;;;;;;;25.85;9.90;;;;;;;-8.52;55.68;101377.94;5036831;28;20448;-67
2024/02/15 10:38:09;;;;;;;10.10;4.93;;;;;;;-8.13;54.64;101393.50;5040147;28;20113;-68
2024/02/15 10:40:35;;;;;;;18.52;8.77;;;;;;;-8.38;54.23;101398.16;5039653;28;20025;-66
2024/02/15 10:43:04;;;;;;;18.48;6.72;;;;;;;-8.60;54.78;101350.03;5040731;28;20110;-67
2024/02/15 10:45:36;;;;;;;18.25;7.50;;;;;;;-8.21;54.59;101386.38;5045794;28;20116;-66
2024/02/15 10:48:04;;;;;;;18.73;8.02;;;;;;;-8.35;55.17;101408.59;5050847;28;20040;-68
2024/02/15 10:50:30;;;;;;;20.05;9.30;;;;;;;-8.33;54.76;101388.72;5050137;28;20037;-68
2024/02/15 10:52:57;;;;;;;13.43;6.00;;;;;;;-8.15;54.73;101388.25;5050098;28;20081;-69
2024/02/15 10:55:40;;;;;;;19.88;7.95;;;;;;;-8.30;54.70;101396.59;5043542;28;20059;-69
2024/02/15 10:58:06;;;;;;;18.85;8.60;;;;;;;-8.33;54.62;101386.13;5043992;27;20033;-67
2024/02/15 11:00:37;;;;;;;23.08;9.80;;;;;;;-8.25;54.43;101381.97;5041657;28;20111;-70
2024/02/15 11:03:07;;;;;;;21.45;10.38;;;;;;;-8.31;54.70;101371.44;5039723;28;20049;-68
2024/02/15 11:05:35;;;;;;;23.40;9.68;;;;;;;-8.25;54.84;101387.16;5038423;28;20037;-67
2024/02/15 11:08:06;;;;;;;20.05;9.02;;;;;;;-8.10;54.48;101383.16;5039992;28;20086;-70
2024/02/15 11:10:32;;;;;;;21.77;9.65;;;;;;;-8.13;54.32;101377.91;5061338;27;20044;-70
2024/02/15 11:12:59;;;;;;;14.60;6.93;;;;;;;-8.29;53.96;101333.38;5049923;28;20473;-70
2024/02/15 11:15:49;;;;;;;24.67;10.93;;;;;;;-8.11;54.24;101371.00;5049786;28;20040;-68
2024/02/15 11:18:51;;;;;;;21.30;6.47;;;;;;;-7.89;54.47;101389.66;5050173;27;20353;-71
2024/02/15 11:21:21;;;;;;;13.50;5.15;;;;;;;-8.03;53.69;101387.63;5050167;28;20444;-69
2024/02/15 11:23:46;;;;;;;26.13;9.98;;;;;;;-8.32;54.45;101379.19;5038996;28;20064;-69
2024/02/15 11:26:48;;;;;;;15.27;5.70;;;;;;;-8.07;54.88;101388.41;5054446;27;20033;-70